sensor_id;sensor_type;location;lat;lon;timestamp;P1;durP1;ratioP1;P2;durP2;ratioP2
3875;SDS011;1953;51.222;6.624;2024-02-26T00:00:36;5.53;;;3.07;;
3875;SDS011;1953;51.222;6.624;2024-02-26T00:05:18;5.20;;;2.90;;
3875;SDS011;1953;51.222;6.624;2024-02-26T00:10:01;4.17;;;2.93;;
3875;SDS011;1953;51.222;6.624;2024-02-26T00:14:44;4.90;;;2.70;;
3875;SDS011;1953;51.222;6.624;2024-02-26T00:21:31;5.23;;;2.60;;
3875;SDS011;1953;51.222;6.624;2024-02-26T00:26:13;4.93;;;2.97;;
3875;SDS011;1953;51.222;6.624;2024-02-26T00:30:56;4.63;;;2.87;;
3875;SDS011;1953;51.222;6.624;2024-02-26T00:35:38;5.20;;;2.67;;
3875;SDS011;1953;51.222;6.624;2024-02-26T00:40:22;4.17;;;2.80;;
3875;SDS011;1953;51.222;6.624;2024-02-26T00:45:05;5.93;;;3.27;;
3875;SDS011;1953;51.222;6.624;2024-02-26T00:49:48;3.77;;;2.30;;
3875;SDS011;1953;51.222;6.624;2024-02-26T00:54:30;5.63;;;2.87;;
3875;SDS011;1953;51.222;6.624;2024-02-26T00:59:14;4.93;;;2.90;;
3875;SDS011;1953;51.222;6.624;2024-02-26T01:03:57;6.13;;;3.40;;
3875;SDS011;1953;51.222;6.624;2024-02-26T01:08:39;4.77;;;2.93;;
3875;SDS011;1953;51.222;6.624;2024-02-26T01:13:22;4.20;;;2.70;;
3875;SDS011;1953;51.222;6.624;2024-02-26T01:18:06;5.03;;;3.03;;
3875;SDS011;1953;51.222;6.624;2024-02-26T01:22:48;3.83;;;2.50;;
3875;SDS011;1953;51.222;6.624;2024-02-26T01:27:31;3.90;;;2.57;;
3875;SDS011;1953;51.222;6.624;2024-02-26T01:32:13;4.70;;;2.70;;
3875;SDS011;1953;51.222;6.624;2024-02-26T01:36:57;4.63;;;2.17;;
3875;SDS011;1953;51.222;6.624;2024-02-26T01:41:39;3.17;;;2.00;;
3875;SDS011;1953;51.222;6.624;2024-02-26T01:46:22;3.57;;;2.00;;
3875;SDS011;1953;51.222;6.624;2024-02-26T01:51:05;4.60;;;2.87;;
3875;SDS011;1953;51.222;6.624;2024-02-26T01:55:49;4.27;;;2.27;;
3875;SDS011;1953;51.222;6.624;2024-02-26T02:00:32;4.80;;;2.10;;
3875;SDS011;1953;51.222;6.624;2024-02-26T02:05:14;3.97;;;2.00;;
3875;SDS011;1953;51.222;6.624;2024-02-26T02:09:57;5.10;;;2.30;;
3875;SDS011;1953;51.222;6.624;2024-02-26T02:14:42;4.30;;;1.90;;
3875;SDS011;1953;51.222;6.624;2024-02-26T02:19:24;3.67;;;2.10;;
3875;SDS011;1953;51.222;6.624;2024-02-26T02:24:08;5.73;;;2.63;;
3875;SDS011;1953;51.222;6.624;2024-02-26T02:28:50;3.23;;;2.00;;
3875;SDS011;1953;51.222;6.624;2024-02-26T02:33:33;4.13;;;2.70;;
3875;SDS011;1953;51.222;6.624;2024-02-26T02:38:16;7.83;;;3.10;;
3875;SDS011;1953;51.222;6.624;2024-02-26T02:43:00;5.30;;;3.70;;
3875;SDS011;1953;51.222;6.624;2024-02-26T02:47:43;5.37;;;3.07;;
3875;SDS011;1953;51.222;6.624;2024-02-26T02:52:25;5.10;;;2.87;;
3875;SDS011;1953;51.222;6.624;2024-02-26T02:57:08;5.70;;;3.33;;
3875;SDS011;1953;51.222;6.624;2024-02-26T03:01:52;5.80;;;3.37;;
3875;SDS011;1953;51.222;6.624;2024-02-26T03:06:34;5.10;;;3.20;;
3875;SDS011;1953;51.222;6.624;2024-02-26T03:11:17;5.20;;;3.33;;
3875;SDS011;1953;51.222;6.624;2024-02-26T03:16:03;7.20;;;3.83;;
3875;SDS011;1953;51.222;6.624;2024-02-26T03:20:48;5.63;;;3.60;;
3875;SDS011;1953;51.222;6.624;2024-02-26T03:25:31;6.03;;;3.20;;
3875;SDS011;1953;51.222;6.624;2024-02-26T03:30:14;4.53;;;2.83;;
3875;SDS011;1953;51.222;6.624;2024-02-26T03:34:56;6.53;;;3.80;;
3875;SDS011;1953;51.222;6.624;2024-02-26T03:39:40;6.00;;;2.90;;
3875;SDS011;1953;51.222;6.624;2024-02-26T03:44:22;5.27;;;2.83;;
3875;SDS011;1953;51.222;6.624;2024-02-26T03:49:05;7.43;;;3.63;;
3875;SDS011;1953;51.222;6.624;2024-02-26T03:53:48;4.33;;;2.83;;
3875;SDS011;1953;51.222;6.624;2024-02-26T03:58:21;5.20;;;3.37;;
3875;SDS011;1953;51.222;6.624;2024-02-26T04:03:04;6.57;;;4.17;;
3875;SDS011;1953;51.222;6.624;2024-02-26T04:07:46;4.70;;;3.07;;
3875;SDS011;1953;51.222;6.624;2024-02-26T04:12:29;5.50;;;3.13;;
3875;SDS011;1953;51.222;6.624;2024-02-26T04:17:13;7.53;;;3.80;;
3875;SDS011;1953;51.222;6.624;2024-02-26T04:21:55;4.87;;;3.20;;
3875;SDS011;1953;51.222;6.624;2024-02-26T04:26:38;7.40;;;3.70;;
3875;SDS011;1953;51.222;6.624;2024-02-26T04:31:20;6.20;;;3.60;;
3875;SDS011;1953;51.222;6.624;2024-02-26T04:36:04;8.00;;;4.87;;
3875;SDS011;1953;51.222;6.624;2024-02-26T04:40:47;7.10;;;4.30;;
3875;SDS011;1953;51.222;6.624;2024-02-26T04:45:29;6.10;;;4.30;;
3875;SDS011;1953;51.222;6.624;2024-02-26T04:50:12;6.10;;;4.33;;
3875;SDS011;1953;51.222;6.624;2024-02-26T04:54:56;7.30;;;4.60;;
3875;SDS011;1953;51.222;6.624;2024-02-26T04:59:40;8.80;;;4.00;;
3875;SDS011;1953;51.222;6.624;2024-02-26T05:04:23;5.83;;;3.80;;
3875;SDS011;1953;51.222;6.624;2024-02-26T05:09:05;7.77;;;4.80;;
3875;SDS011;1953;51.222;6.624;2024-02-26T05:13:49;6.10;;;4.10;;
3875;SDS011;1953;51.222;6.624;2024-02-26T05:18:31;8.23;;;4.90;;
3875;SDS011;1953;51.222;6.624;2024-02-26T05:23:14;5.90;;;4.33;;
3875;SDS011;1953;51.222;6.624;2024-02-26T05:27:56;7.73;;;4.73;;
3875;SDS011;1953;51.222;6.624;2024-02-26T05:32:40;9.77;;;5.00;;
3875;SDS011;1953;51.222;6.624;2024-02-26T05:37:23;6.77;;;4.77;;
3875;SDS011;1953;51.222;6.624;2024-02-26T05:42:05;8.70;;;5.20;;
3875;SDS011;1953;51.222;6.624;2024-02-26T05:46:49;10.07;;;5.63;;
3875;SDS011;1953;51.222;6.624;2024-02-26T05:51:33;14.27;;;5.80;;
3875;SDS011;1953;51.222;6.624;2024-02-26T05:56:16;9.40;;;5.57;;
3875;SDS011;1953;51.222;6.624;2024-02-26T06:00:58;8.10;;;5.67;;
3875;SDS011;1953;51.222;6.624;2024-02-26T06:05:41;10.43;;;5.60;;
3875;SDS011;1953;51.222;6.624;2024-02-26T06:10:26;9.53;;;5.80;;
3875;SDS011;1953;51.222;6.624;2024-02-26T06:15:09;11.80;;;6.20;;
3875;SDS011;1953;51.222;6.624;2024-02-26T06:19:52;10.60;;;6.90;;
3875;SDS011;1953;51.222;6.624;2024-02-26T06:24:35;10.17;;;6.27;;
3875;SDS011;1953;51.222;6.624;2024-02-26T06:29:19;10.67;;;6.67;;
3875;SDS011;1953;51.222;6.624;2024-02-26T06:34:01;9.23;;;6.33;;
3875;SDS011;1953;51.222;6.624;2024-02-26T06:38:44;11.60;;;6.80;;
3875;SDS011;1953;51.222;6.624;2024-02-26T06:43:26;9.63;;;6.17;;
3875;SDS011;1953;51.222;6.624;2024-02-26T06:48:10;11.10;;;6.83;;
3875;SDS011;1953;51.222;6.624;2024-02-26T06:52:53;9.63;;;5.77;;
3875;SDS011;1953;51.222;6.624;2024-02-26T06:57:35;10.73;;;6.70;;
3875;SDS011;1953;51.222;6.624;2024-02-26T07:02:18;10.13;;;7.00;;
3875;SDS011;1953;51.222;6.624;2024-02-26T07:07:02;11.37;;;7.27;;
3875;SDS011;1953;51.222;6.624;2024-02-26T07:11:44;13.37;;;7.10;;
3875;SDS011;1953;51.222;6.624;2024-02-26T07:16:27;11.83;;;7.40;;
3875;SDS011;1953;51.222;6.624;2024-02-26T07:21:11;12.47;;;7.60;;
3875;SDS011;1953;51.222;6.624;2024-02-26T07:25:55;15.90;;;8.13;;
3875;SDS011;1953;51.222;6.624;2024-02-26T07:30:37;12.20;;;6.83;;
3875;SDS011;1953;51.222;6.624;2024-02-26T07:35:21;9.87;;;7.30;;
3875;SDS011;1953;51.222;6.624;2024-02-26T07:40:05;10.83;;;7.77;;
3875;SDS011;1953;51.222;6.624;2024-02-26T07:44:50;17.83;;;7.43;;
3875;SDS011;1953;51.222;6.624;2024-02-26T07:49:33;10.63;;;6.50;;
3875;SDS011;1953;51.222;6.624;2024-02-26T07:54:16;9.70;;;6.53;;
3875;SDS011;1953;51.222;6.624;2024-02-26T07:59:00;9.77;;;6.83;;
3875;SDS011;1953;51.222;6.624;2024-02-26T08:03:44;11.30;;;7.40;;
3875;SDS011;1953;51.222;6.624;2024-02-26T08:08:26;9.80;;;6.43;;
3875;SDS011;1953;51.222;6.624;2024-02-26T08:13:09;9.63;;;6.40;;
3875;SDS011;1953;51.222;6.624;2024-02-26T08:17:51;11.37;;;7.20;;
3875;SDS011;1953;51.222;6.624;2024-02-26T08:22:49;9.73;;;6.17;;
3875;SDS011;1953;51.222;6.624;2024-02-26T08:27:32;9.57;;;5.57;;
3875;SDS011;1953;51.222;6.624;2024-02-26T08:32:14;10.30;;;5.70;;
3875;SDS011;1953;51.222;6.624;2024-02-26T08:36:57;8.27;;;5.30;;
3875;SDS011;1953;51.222;6.624;2024-02-26T08:41:41;10.70;;;5.63;;
3875;SDS011;1953;51.222;6.624;2024-02-26T08:46:24;8.97;;;5.63;;
3875;SDS011;1953;51.222;6.624;2024-02-26T08:51:06;9.67;;;6.37;;
3875;SDS011;1953;51.222;6.624;2024-02-26T08:55:50;8.33;;;5.80;;
3875;SDS011;1953;51.222;6.624;2024-02-26T09:00:34;9.10;;;5.93;;
3875;SDS011;1953;51.222;6.624;2024-02-26T09:05:17;9.40;;;5.37;;
3875;SDS011;1953;51.222;6.624;2024-02-26T09:09:59;9.87;;;6.00;;
3875;SDS011;1953;51.222;6.624;2024-02-26T09:14:42;11.70;;;6.13;;
3875;SDS011;1953;51.222;6.624;2024-02-26T09:19:26;11.70;;;6.60;;
3875;SDS011;1953;51.222;6.624;2024-02-26T09:24:09;10.50;;;6.57;;
3875;SDS011;1953;51.222;6.624;2024-02-26T09:28:52;11.43;;;6.53;;
3875;SDS011;1953;51.222;6.624;2024-02-26T09:33:34;10.33;;;5.93;;
3875;SDS011;1953;51.222;6.624;2024-02-26T09:38:19;12.20;;;7.17;;
3875;SDS011;1953;51.222;6.624;2024-02-26T09:43:01;10.60;;;6.63;;
3875;SDS011;1953;51.222;6.624;2024-02-26T09:47:48;13.67;;;5.47;;
3875;SDS011;1953;51.222;6.624;2024-02-26T09:52:31;10.73;;;6.97;;
3875;SDS011;1953;51.222;6.624;2024-02-26T09:57:17;12.77;;;6.77;;
3875;SDS011;1953;51.222;6.624;2024-02-26T10:02:00;11.10;;;6.77;;
3875;SDS011;1953;51.222;6.624;2024-02-26T10:06:45;10.67;;;6.63;;
3875;SDS011;1953;51.222;6.624;2024-02-26T10:11:28;10.13;;;6.60;;
3875;SDS011;1953;51.222;6.624;2024-02-26T10:16:13;11.57;;;7.30;;
3875;SDS011;1953;51.222;6.624;2024-02-26T10:20:59;12.23;;;7.10;;
3875;SDS011;1953;51.222;6.624;2024-02-26T10:25:51;12.10;;;7.37;;
3875;SDS011;1953;51.222;6.624;2024-02-26T10:30:36;12.27;;;7.80;;
3875;SDS011;1953;51.222;6.624;2024-02-26T10:35:20;11.07;;;7.30;;
3875;SDS011;1953;51.222;6.624;2024-02-26T10:40:03;12.57;;;7.73;;
3875;SDS011;1953;51.222;6.624;2024-02-26T10:44:46;11.37;;;7.60;;
3875;SDS011;1953;51.222;6.624;2024-02-26T10:49:29;13.50;;;8.10;;
3875;SDS011;1953;51.222;6.624;2024-02-26T10:54:15;13.00;;;7.77;;
3875;SDS011;1953;51.222;6.624;2024-02-26T10:58:58;15.97;;;8.67;;
3875;SDS011;1953;51.222;6.624;2024-02-26T11:03:41;10.73;;;7.50;;
3875;SDS011;1953;51.222;6.624;2024-02-26T11:08:24;13.27;;;7.40;;
3875;SDS011;1953;51.222;6.624;2024-02-26T11:13:09;12.83;;;8.07;;
3875;SDS011;1953;51.222;6.624;2024-02-26T11:17:55;13.60;;;8.77;;
3875;SDS011;1953;51.222;6.624;2024-02-26T11:22:38;13.80;;;8.17;;
3875;SDS011;1953;51.222;6.624;2024-02-26T11:27:21;14.03;;;9.10;;
3875;SDS011;1953;51.222;6.624;2024-02-26T11:32:08;12.40;;;7.53;;
3875;SDS011;1953;51.222;6.624;2024-02-26T11:36:51;15.97;;;8.67;;
3875;SDS011;1953;51.222;6.624;2024-02-26T11:41:33;14.10;;;8.10;;
3875;SDS011;1953;51.222;6.624;2024-02-26T11:46:28;14.13;;;8.37;;
3875;SDS011;1953;51.222;6.624;2024-02-26T11:51:13;16.77;;;9.53;;
3875;SDS011;1953;51.222;6.624;2024-02-26T12:01:04;13.40;;;9.13;;
3875;SDS011;1953;51.222;6.624;2024-02-26T12:05:46;15.10;;;8.77;;
3875;SDS011;1953;51.222;6.624;2024-02-26T12:10:31;13.70;;;9.30;;
3875;SDS011;1953;51.222;6.624;2024-02-26T12:15:16;14.60;;;9.07;;
3875;SDS011;1953;51.222;6.624;2024-02-26T12:22:30;17.40;;;10.10;;
3875;SDS011;1953;51.222;6.624;2024-02-26T12:27:13;17.70;;;10.83;;
3875;SDS011;1953;51.222;6.624;2024-02-26T12:31:56;19.33;;;10.83;;
3875;SDS011;1953;51.222;6.624;2024-02-26T12:36:39;17.63;;;10.57;;
3875;SDS011;1953;51.222;6.624;2024-02-26T12:41:23;22.00;;;11.60;;
3875;SDS011;1953;51.222;6.624;2024-02-26T12:46:05;18.50;;;11.90;;
3875;SDS011;1953;51.222;6.624;2024-02-26T12:50:48;17.03;;;11.43;;
3875;SDS011;1953;51.222;6.624;2024-02-26T12:55:30;20.60;;;11.43;;
3875;SDS011;1953;51.222;6.624;2024-02-26T13:00:18;19.20;;;11.50;;
3875;SDS011;1953;51.222;6.624;2024-02-26T13:05:04;18.53;;;12.17;;
3875;SDS011;1953;51.222;6.624;2024-02-26T13:09:49;20.87;;;11.63;;
3875;SDS011;1953;51.222;6.624;2024-02-26T13:14:33;18.30;;;11.20;;
3875;SDS011;1953;51.222;6.624;2024-02-26T13:19:17;17.33;;;11.17;;
3875;SDS011;1953;51.222;6.624;2024-02-26T13:23:59;22.10;;;12.60;;
3875;SDS011;1953;51.222;6.624;2024-02-26T13:28:42;23.83;;;13.53;;
3875;SDS011;1953;51.222;6.624;2024-02-26T13:33:25;19.73;;;13.27;;
3875;SDS011;1953;51.222;6.624;2024-02-26T13:38:11;23.20;;;14.00;;
3875;SDS011;1953;51.222;6.624;2024-02-26T13:42:54;21.80;;;13.17;;
3875;SDS011;1953;51.222;6.624;2024-02-26T13:47:37;20.33;;;12.80;;
3875;SDS011;1953;51.222;6.624;2024-02-26T13:52:22;21.95;;;14.00;;
3875;SDS011;1953;51.222;6.624;2024-02-26T13:57:06;21.77;;;14.70;;
3875;SDS011;1953;51.222;6.624;2024-02-26T14:01:49;22.67;;;13.43;;
3875;SDS011;1953;51.222;6.624;2024-02-26T14:06:33;21.00;;;13.00;;
3875;SDS011;1953;51.222;6.624;2024-02-26T14:11:16;22.00;;;14.03;;
3875;SDS011;1953;51.222;6.624;2024-02-26T14:16:00;25.67;;;14.10;;
3875;SDS011;1953;51.222;6.624;2024-02-26T14:20:43;24.13;;;13.43;;
3875;SDS011;1953;51.222;6.624;2024-02-26T14:25:25;22.87;;;12.80;;
3875;SDS011;1953;51.222;6.624;2024-02-26T14:30:08;20.47;;;12.30;;
3875;SDS011;1953;51.222;6.624;2024-02-26T14:34:52;19.03;;;11.70;;
3875;SDS011;1953;51.222;6.624;2024-02-26T14:39:37;20.93;;;12.30;;
3875;SDS011;1953;51.222;6.624;2024-02-26T14:44:20;17.03;;;11.30;;
3875;SDS011;1953;51.222;6.624;2024-02-26T14:49:02;14.50;;;9.60;;
3875;SDS011;1953;51.222;6.624;2024-02-26T14:53:47;15.37;;;10.90;;
3875;SDS011;1953;51.222;6.624;2024-02-26T14:58:29;14.97;;;10.30;;
3875;SDS011;1953;51.222;6.624;2024-02-26T15:03:12;15.10;;;10.20;;
3875;SDS011;1953;51.222;6.624;2024-02-26T15:07:55;18.50;;;10.17;;
3875;SDS011;1953;51.222;6.624;2024-02-26T15:12:38;15.30;;;9.80;;
3875;SDS011;1953;51.222;6.624;2024-02-26T15:17:21;15.00;;;9.70;;
3875;SDS011;1953;51.222;6.624;2024-02-26T15:22:04;14.60;;;9.27;;
3875;SDS011;1953;51.222;6.624;2024-02-26T15:26:47;15.60;;;9.87;;
3875;SDS011;1953;51.222;6.624;2024-02-26T15:31:31;17.43;;;9.23;;
3875;SDS011;1953;51.222;6.624;2024-02-26T15:36:13;15.73;;;8.83;;
3875;SDS011;1953;51.222;6.624;2024-02-26T15:40:56;16.43;;;10.50;;
3875;SDS011;1953;51.222;6.624;2024-02-26T15:45:38;13.60;;;8.80;;
3875;SDS011;1953;51.222;6.624;2024-02-26T15:50:22;17.07;;;10.10;;
3875;SDS011;1953;51.222;6.624;2024-02-26T15:55:05;16.23;;;10.10;;
3875;SDS011;1953;51.222;6.624;2024-02-26T15:59:48;13.20;;;8.47;;
3875;SDS011;1953;51.222;6.624;2024-02-26T16:04:32;13.23;;;8.97;;
3875;SDS011;1953;51.222;6.624;2024-02-26T16:09:16;11.80;;;8.00;;
3875;SDS011;1953;51.222;6.624;2024-02-26T16:13:59;13.03;;;8.27;;
3875;SDS011;1953;51.222;6.624;2024-02-26T16:18:50;13.50;;;7.30;;
3875;SDS011;1953;51.222;6.624;2024-02-26T16:23:33;10.93;;;8.00;;
3875;SDS011;1953;51.222;6.624;2024-02-26T16:28:17;11.93;;;6.80;;
3875;SDS011;1953;51.222;6.624;2024-02-26T16:33:02;12.67;;;7.27;;
3875;SDS011;1953;51.222;6.624;2024-02-26T16:37:44;15.43;;;7.60;;
3875;SDS011;1953;51.222;6.624;2024-02-26T16:42:27;12.20;;;8.00;;
3875;SDS011;1953;51.222;6.624;2024-02-26T16:47:11;14.17;;;8.50;;
3875;SDS011;1953;51.222;6.624;2024-02-26T16:51:54;17.43;;;10.30;;
3875;SDS011;1953;51.222;6.624;2024-02-26T16:56:36;15.60;;;10.37;;
3875;SDS011;1953;51.222;6.624;2024-02-26T17:01:19;17.97;;;11.27;;
3875;SDS011;1953;51.222;6.624;2024-02-26T17:06:03;18.80;;;12.30;;
3875;SDS011;1953;51.222;6.624;2024-02-26T17:10:45;22.23;;;12.87;;
3875;SDS011;1953;51.222;6.624;2024-02-26T17:15:28;20.50;;;14.73;;
3875;SDS011;1953;51.222;6.624;2024-02-26T17:20:11;24.80;;;14.00;;
3875;SDS011;1953;51.222;6.624;2024-02-26T17:24:56;25.77;;;14.03;;
3875;SDS011;1953;51.222;6.624;2024-02-26T17:29:39;23.90;;;14.30;;
3875;SDS011;1953;51.222;6.624;2024-02-26T17:34:21;27.70;;;14.43;;
3875;SDS011;1953;51.222;6.624;2024-02-26T17:39:04;21.67;;;12.93;;
3875;SDS011;1953;51.222;6.624;2024-02-26T17:43:48;20.83;;;11.83;;
3875;SDS011;1953;51.222;6.624;2024-02-26T17:48:31;16.47;;;10.67;;
3875;SDS011;1953;51.222;6.624;2024-02-26T17:53:13;17.33;;;10.43;;
3875;SDS011;1953;51.222;6.624;2024-02-26T17:57:56;14.93;;;10.40;;
3875;SDS011;1953;51.222;6.624;2024-02-26T18:02:40;19.03;;;10.03;;
3875;SDS011;1953;51.222;6.624;2024-02-26T18:07:23;16.90;;;11.10;;
3875;SDS011;1953;51.222;6.624;2024-02-26T18:12:06;17.93;;;10.57;;
3875;SDS011;1953;51.222;6.624;2024-02-26T18:16:50;17.57;;;10.20;;
3875;SDS011;1953;51.222;6.624;2024-02-26T18:21:34;15.10;;;10.47;;
3875;SDS011;1953;51.222;6.624;2024-02-26T18:26:17;16.67;;;10.50;;
3875;SDS011;1953;51.222;6.624;2024-02-26T18:31:02;13.77;;;9.27;;
3875;SDS011;1953;51.222;6.624;2024-02-26T18:35:45;16.27;;;11.07;;
3875;SDS011;1953;51.222;6.624;2024-02-26T18:40:29;15.70;;;10.37;;
3875;SDS011;1953;51.222;6.624;2024-02-26T18:45:12;14.23;;;9.40;;
3875;SDS011;1953;51.222;6.624;2024-02-26T18:49:55;17.43;;;10.10;;
3875;SDS011;1953;51.222;6.624;2024-02-26T18:54:40;18.27;;;11.17;;
3875;SDS011;1953;51.222;6.624;2024-02-26T18:59:25;15.27;;;10.40;;
3875;SDS011;1953;51.222;6.624;2024-02-26T19:04:11;17.10;;;10.80;;
3875;SDS011;1953;51.222;6.624;2024-02-26T19:08:53;19.03;;;11.80;;
3875;SDS011;1953;51.222;6.624;2024-02-26T19:13:36;17.67;;;11.20;;
3875;SDS011;1953;51.222;6.624;2024-02-26T19:18:28;20.03;;;12.10;;
3875;SDS011;1953;51.222;6.624;2024-02-26T19:23:12;22.23;;;13.87;;
3875;SDS011;1953;51.222;6.624;2024-02-26T19:27:55;22.33;;;13.97;;
3875;SDS011;1953;51.222;6.624;2024-02-26T19:32:38;25.43;;;14.13;;
3875;SDS011;1953;51.222;6.624;2024-02-26T19:37:22;22.20;;;13.50;;
3875;SDS011;1953;51.222;6.624;2024-02-26T19:42:06;22.40;;;14.40;;
3875;SDS011;1953;51.222;6.624;2024-02-26T19:46:50;25.90;;;16.03;;
3875;SDS011;1953;51.222;6.624;2024-02-26T19:51:33;23.80;;;14.13;;
3875;SDS011;1953;51.222;6.624;2024-02-26T19:56:18;21.90;;;14.00;;
3875;SDS011;1953;51.222;6.624;2024-02-26T20:01:02;20.83;;;13.63;;
3875;SDS011;1953;51.222;6.624;2024-02-26T20:05:45;23.37;;;14.33;;
3875;SDS011;1953;51.222;6.624;2024-02-26T20:10:27;20.73;;;13.57;;
3875;SDS011;1953;51.222;6.624;2024-02-26T20:15:11;23.90;;;14.50;;
3875;SDS011;1953;51.222;6.624;2024-02-26T20:19:54;24.37;;;15.30;;
3875;SDS011;1953;51.222;6.624;2024-02-26T20:24:38;20.90;;;13.13;;
3875;SDS011;1953;51.222;6.624;2024-02-26T20:29:21;24.70;;;16.20;;
3875;SDS011;1953;51.222;6.624;2024-02-26T20:34:05;23.97;;;15.30;;
3875;SDS011;1953;51.222;6.624;2024-02-26T20:38:49;23.97;;;14.10;;
3875;SDS011;1953;51.222;6.624;2024-02-26T20:43:34;24.37;;;14.70;;
3875;SDS011;1953;51.222;6.624;2024-02-26T20:48:17;24.63;;;15.40;;
3875;SDS011;1953;51.222;6.624;2024-02-26T20:53:02;24.73;;;14.83;;
3875;SDS011;1953;51.222;6.624;2024-02-26T20:57:45;26.93;;;15.93;;
3875;SDS011;1953;51.222;6.624;2024-02-26T21:02:27;25.83;;;15.97;;
3875;SDS011;1953;51.222;6.624;2024-02-26T21:07:10;24.13;;;15.07;;
3875;SDS011;1953;51.222;6.624;2024-02-26T21:11:58;25.30;;;16.17;;
3875;SDS011;1953;51.222;6.624;2024-02-26T21:16:41;28.33;;;16.57;;
3875;SDS011;1953;51.222;6.624;2024-02-26T21:21:24;27.50;;;16.43;;
3875;SDS011;1953;51.222;6.624;2024-02-26T21:26:09;26.33;;;17.60;;
3875;SDS011;1953;51.222;6.624;2024-02-26T21:30:53;29.70;;;17.77;;
3875;SDS011;1953;51.222;6.624;2024-02-26T21:35:38;31.07;;;19.60;;
3875;SDS011;1953;51.222;6.624;2024-02-26T21:40:21;30.93;;;19.50;;
3875;SDS011;1953;51.222;6.624;2024-02-26T21:45:04;31.60;;;19.90;;
3875;SDS011;1953;51.222;6.624;2024-02-26T21:49:49;34.30;;;20.70;;
3875;SDS011;1953;51.222;6.624;2024-02-26T21:54:32;31.70;;;20.73;;
3875;SDS011;1953;51.222;6.624;2024-02-26T21:59:15;35.37;;;21.00;;
3875;SDS011;1953;51.222;6.624;2024-02-26T22:03:58;38.03;;;21.50;;
3875;SDS011;1953;51.222;6.624;2024-02-26T22:08:42;33.87;;;21.10;;
3875;SDS011;1953;51.222;6.624;2024-02-26T22:13:25;41.33;;;23.77;;
3875;SDS011;1953;51.222;6.624;2024-02-26T22:18:07;41.00;;;22.53;;
3875;SDS011;1953;51.222;6.624;2024-02-26T22:22:50;40.63;;;23.80;;
3875;SDS011;1953;51.222;6.624;2024-02-26T22:27:34;41.40;;;23.80;;
3875;SDS011;1953;51.222;6.624;2024-02-26T22:32:16;46.90;;;26.90;;
3875;SDS011;1953;51.222;6.624;2024-02-26T22:36:59;45.80;;;24.60;;
3875;SDS011;1953;51.222;6.624;2024-02-26T22:41:42;43.00;;;24.43;;
3875;SDS011;1953;51.222;6.624;2024-02-26T22:46:27;43.63;;;25.47;;
3875;SDS011;1953;51.222;6.624;2024-02-26T22:51:11;44.47;;;25.40;;
3875;SDS011;1953;51.222;6.624;2024-02-26T22:55:54;48.37;;;26.30;;
3875;SDS011;1953;51.222;6.624;2024-02-26T23:00:38;46.17;;;25.10;;
3875;SDS011;1953;51.222;6.624;2024-02-26T23:05:22;46.00;;;26.70;;
3875;SDS011;1953;51.222;6.624;2024-02-26T23:10:06;45.67;;;26.03;;
3875;SDS011;1953;51.222;6.624;2024-02-26T23:14:49;48.70;;;25.60;;
3875;SDS011;1953;51.222;6.624;2024-02-26T23:19:32;44.83;;;26.30;;
3875;SDS011;1953;51.222;6.624;2024-02-26T23:24:16;45.83;;;26.70;;
3875;SDS011;1953;51.222;6.624;2024-02-26T23:28:59;47.07;;;27.17;;
3875;SDS011;1953;51.222;6.624;2024-02-26T23:33:41;47.60;;;26.73;;
3875;SDS011;1953;51.222;6.624;2024-02-26T23:38:23;46.23;;;26.10;;
3875;SDS011;1953;51.222;6.624;2024-02-26T23:43:07;47.10;;;27.27;;
3875;SDS011;1953;51.222;6.624;2024-02-26T23:47:49;49.90;;;25.20;;
3875;SDS011;1953;51.222;6.624;2024-02-26T23:52:32;46.43;;;27.00;;
3875;SDS011;1953;51.222;6.624;2024-02-26T23:57:14;47.90;;;28.97;;
